sensor_id;sensor_type;location;lat;lon;timestamp;P1;durP1;ratioP1;P2;durP2;ratioP2
12892;SDS011;6514;48.606;9.222;2022-10-26T00:01:31;5.40;;;2.53;;
12892;SDS011;6514;48.606;9.222;2022-10-26T00:03:58;4.17;;;2.30;;
12892;SDS011;6514;48.606;9.222;2022-10-26T00:06:26;5.10;;;2.43;;
12892;SDS011;6514;48.606;9.222;2022-10-26T00:08:54;5.17;;;2.57;;
12892;SDS011;6514;48.606;9.222;2022-10-26T00:11:22;2.83;;;2.13;;
12892;SDS011;6514;48.606;9.222;2022-10-26T00:13:49;2.60;;;2.40;;
12892;SDS011;6514;48.606;9.222;2022-10-26T00:16:17;3.70;;;2.10;;
12892;SDS011;6514;48.606;9.222;2022-10-26T00:18:45;4.93;;;2.40;;
12892;SDS011;6514;48.606;9.222;2022-10-26T00:21:12;5.27;;;1.90;;
12892;SDS011;6514;48.606;9.222;2022-10-26T00:23:41;4.03;;;1.83;;
12892;SDS011;6514;48.606;9.222;2022-10-26T00:26:08;3.47;;;2.00;;
12892;SDS011;6514;48.606;9.222;2022-10-26T00:28:35;3.53;;;1.83;;
12892;SDS011;6514;48.606;9.222;2022-10-26T00:31:03;3.60;;;1.93;;
12892;SDS011;6514;48.606;9.222;2022-10-26T00:33:31;3.67;;;1.83;;
12892;SDS011;6514;48.606;9.222;2022-10-26T00:35:58;3.87;;;2.20;;
12892;SDS011;6514;48.606;9.222;2022-10-26T00:38:25;6.20;;;2.40;;
12892;SDS011;6514;48.606;9.222;2022-10-26T00:40:53;3.60;;;2.30;;
12892;SDS011;6514;48.606;9.222;2022-10-26T00:43:34;3.63;;;2.03;;
12892;SDS011;6514;48.606;9.222;2022-10-26T00:46:05;4.53;;;2.27;;
12892;SDS011;6514;48.606;9.222;2022-10-26T00:48:38;4.63;;;2.17;;
12892;SDS011;6514;48.606;9.222;2022-10-26T00:51:09;3.57;;;2.30;;
12892;SDS011;6514;48.606;9.222;2022-10-26T00:53:40;4.13;;;2.20;;
12892;SDS011;6514;48.606;9.222;2022-10-26T00:56:09;4.63;;;2.50;;
12892;SDS011;6514;48.606;9.222;2022-10-26T00:58:37;3.43;;;2.10;;
12892;SDS011;6514;48.606;9.222;2022-10-26T01:01:04;3.63;;;2.30;;
12892;SDS011;6514;48.606;9.222;2022-10-26T01:03:31;3.67;;;1.97;;
12892;SDS011;6514;48.606;9.222;2022-10-26T01:05:59;3.13;;;2.10;;
12892;SDS011;6514;48.606;9.222;2022-10-26T01:08:28;6.27;;;2.73;;
12892;SDS011;6514;48.606;9.222;2022-10-26T01:10:56;4.00;;;2.80;;
12892;SDS011;6514;48.606;9.222;2022-10-26T01:13:25;2.83;;;2.03;;
12892;SDS011;6514;48.606;9.222;2022-10-26T01:15:57;3.93;;;2.60;;
12892;SDS011;6514;48.606;9.222;2022-10-26T01:18:34;4.73;;;2.43;;
12892;SDS011;6514;48.606;9.222;2022-10-26T01:21:20;6.03;;;3.00;;
12892;SDS011;6514;48.606;9.222;2022-10-26T01:24:19;4.57;;;2.70;;
12892;SDS011;6514;48.606;9.222;2022-10-26T01:26:58;4.90;;;3.40;;
12892;SDS011;6514;48.606;9.222;2022-10-26T01:33:02;7.03;;;3.53;;
12892;SDS011;6514;48.606;9.222;2022-10-26T01:35:37;4.13;;;2.87;;
12892;SDS011;6514;48.606;9.222;2022-10-26T01:38:08;5.30;;;3.10;;
12892;SDS011;6514;48.606;9.222;2022-10-26T01:40:41;4.37;;;3.10;;
12892;SDS011;6514;48.606;9.222;2022-10-26T01:43:12;7.03;;;3.63;;
12892;SDS011;6514;48.606;9.222;2022-10-26T01:45:42;6.60;;;2.97;;
12892;SDS011;6514;48.606;9.222;2022-10-26T01:48:12;4.03;;;2.60;;
12892;SDS011;6514;48.606;9.222;2022-10-26T01:50:43;8.03;;;3.07;;
12892;SDS011;6514;48.606;9.222;2022-10-26T01:53:13;5.80;;;3.13;;
12892;SDS011;6514;48.606;9.222;2022-10-26T01:55:46;7.90;;;3.20;;
12892;SDS011;6514;48.606;9.222;2022-10-26T02:01:28;4.87;;;3.23;;
12892;SDS011;6514;48.606;9.222;2022-10-26T02:04:06;6.80;;;3.67;;
12892;SDS011;6514;48.606;9.222;2022-10-26T02:06:44;3.90;;;3.13;;
12892;SDS011;6514;48.606;9.222;2022-10-26T02:09:19;5.80;;;3.37;;
12892;SDS011;6514;48.606;9.222;2022-10-26T02:11:53;4.13;;;3.13;;
12892;SDS011;6514;48.606;9.222;2022-10-26T02:14:23;6.33;;;3.00;;
12892;SDS011;6514;48.606;9.222;2022-10-26T02:16:57;5.37;;;3.20;;
12892;SDS011;6514;48.606;9.222;2022-10-26T02:19:35;3.70;;;2.93;;
12892;SDS011;6514;48.606;9.222;2022-10-26T02:22:07;5.60;;;3.10;;
12892;SDS011;6514;48.606;9.222;2022-10-26T02:24:39;5.93;;;3.63;;
12892;SDS011;6514;48.606;9.222;2022-10-26T02:27:09;5.07;;;3.10;;
12892;SDS011;6514;48.606;9.222;2022-10-26T02:29:41;6.20;;;5.43;;
12892;SDS011;6514;48.606;9.222;2022-10-26T02:32:09;8.17;;;4.07;;
12892;SDS011;6514;48.606;9.222;2022-10-26T02:34:38;6.87;;;3.60;;
12892;SDS011;6514;48.606;9.222;2022-10-26T02:37:09;6.73;;;3.10;;
12892;SDS011;6514;48.606;9.222;2022-10-26T02:39:38;7.27;;;3.10;;
12892;SDS011;6514;48.606;9.222;2022-10-26T02:42:06;6.30;;;3.70;;
12892;SDS011;6514;48.606;9.222;2022-10-26T02:44:35;5.47;;;3.23;;
12892;SDS011;6514;48.606;9.222;2022-10-26T02:47:06;3.57;;;3.00;;
12892;SDS011;6514;48.606;9.222;2022-10-26T02:49:34;4.63;;;2.70;;
12892;SDS011;6514;48.606;9.222;2022-10-26T02:52:03;6.97;;;3.40;;
12892;SDS011;6514;48.606;9.222;2022-10-26T02:54:35;6.17;;;2.63;;
12892;SDS011;6514;48.606;9.222;2022-10-26T02:57:11;5.23;;;2.50;;
12892;SDS011;6514;48.606;9.222;2022-10-26T02:59:41;4.00;;;2.50;;
12892;SDS011;6514;48.606;9.222;2022-10-26T03:02:11;4.80;;;2.30;;
12892;SDS011;6514;48.606;9.222;2022-10-26T03:04:40;5.07;;;2.47;;
12892;SDS011;6514;48.606;9.222;2022-10-26T03:07:08;4.00;;;2.70;;
12892;SDS011;6514;48.606;9.222;2022-10-26T03:09:35;7.70;;;2.83;;
12892;SDS011;6514;48.606;9.222;2022-10-26T03:12:02;5.13;;;3.10;;
12892;SDS011;6514;48.606;9.222;2022-10-26T03:14:29;4.80;;;2.70;;
12892;SDS011;6514;48.606;9.222;2022-10-26T03:16:56;7.30;;;3.23;;
12892;SDS011;6514;48.606;9.222;2022-10-26T03:19:23;6.60;;;3.27;;
12892;SDS011;6514;48.606;9.222;2022-10-26T03:21:50;4.97;;;3.13;;
12892;SDS011;6514;48.606;9.222;2022-10-26T03:24:18;8.27;;;6.57;;
12892;SDS011;6514;48.606;9.222;2022-10-26T03:26:45;9.43;;;6.67;;
12892;SDS011;6514;48.606;9.222;2022-10-26T03:29:12;8.10;;;6.60;;
12892;SDS011;6514;48.606;9.222;2022-10-26T03:31:39;9.23;;;6.40;;
12892;SDS011;6514;48.606;9.222;2022-10-26T03:34:05;20.30;;;15.43;;
12892;SDS011;6514;48.606;9.222;2022-10-26T03:36:32;13.47;;;11.53;;
12892;SDS011;6514;48.606;9.222;2022-10-26T03:38:59;7.43;;;5.27;;
12892;SDS011;6514;48.606;9.222;2022-10-26T03:41:27;6.80;;;3.30;;
12892;SDS011;6514;48.606;9.222;2022-10-26T03:43:54;9.30;;;3.10;;
12892;SDS011;6514;48.606;9.222;2022-10-26T03:46:21;7.00;;;3.27;;
12892;SDS011;6514;48.606;9.222;2022-10-26T03:48:48;4.90;;;3.23;;
12892;SDS011;6514;48.606;9.222;2022-10-26T03:51:15;8.03;;;4.10;;
12892;SDS011;6514;48.606;9.222;2022-10-26T03:53:42;5.97;;;4.30;;
12892;SDS011;6514;48.606;9.222;2022-10-26T03:56:08;11.93;;;7.70;;
12892;SDS011;6514;48.606;9.222;2022-10-26T03:58:37;17.87;;;9.83;;
12892;SDS011;6514;48.606;9.222;2022-10-26T04:01:03;11.93;;;6.20;;
12892;SDS011;6514;48.606;9.222;2022-10-26T04:03:30;7.63;;;5.87;;
12892;SDS011;6514;48.606;9.222;2022-10-26T04:05:59;6.27;;;3.87;;
12892;SDS011;6514;48.606;9.222;2022-10-26T04:08:26;11.23;;;6.33;;
12892;SDS011;6514;48.606;9.222;2022-10-26T04:10:53;10.17;;;5.60;;
12892;SDS011;6514;48.606;9.222;2022-10-26T04:13:20;6.40;;;4.70;;
12892;SDS011;6514;48.606;9.222;2022-10-26T04:15:48;6.30;;;5.47;;
12892;SDS011;6514;48.606;9.222;2022-10-26T04:18:15;10.23;;;6.10;;
12892;SDS011;6514;48.606;9.222;2022-10-26T04:20:42;8.53;;;4.83;;
12892;SDS011;6514;48.606;9.222;2022-10-26T04:23:10;6.30;;;3.97;;
12892;SDS011;6514;48.606;9.222;2022-10-26T04:25:38;7.03;;;4.67;;
12892;SDS011;6514;48.606;9.222;2022-10-26T04:28:06;6.13;;;4.37;;
12892;SDS011;6514;48.606;9.222;2022-10-26T04:30:34;6.57;;;4.60;;
12892;SDS011;6514;48.606;9.222;2022-10-26T04:33:03;10.03;;;5.20;;
12892;SDS011;6514;48.606;9.222;2022-10-26T04:35:30;6.70;;;5.37;;
12892;SDS011;6514;48.606;9.222;2022-10-26T04:37:57;6.87;;;5.03;;
12892;SDS011;6514;48.606;9.222;2022-10-26T04:40:25;5.90;;;4.87;;
12892;SDS011;6514;48.606;9.222;2022-10-26T04:42:52;6.60;;;5.47;;
12892;SDS011;6514;48.606;9.222;2022-10-26T04:45:19;7.27;;;5.27;;
12892;SDS011;6514;48.606;9.222;2022-10-26T04:47:46;6.37;;;5.67;;
12892;SDS011;6514;48.606;9.222;2022-10-26T04:50:14;10.10;;;5.80;;
12892;SDS011;6514;48.606;9.222;2022-10-26T04:52:41;7.70;;;5.20;;
12892;SDS011;6514;48.606;9.222;2022-10-26T04:55:08;6.63;;;5.53;;
12892;SDS011;6514;48.606;9.222;2022-10-26T04:57:35;6.90;;;5.43;;
12892;SDS011;6514;48.606;9.222;2022-10-26T05:00:03;9.67;;;5.47;;
12892;SDS011;6514;48.606;9.222;2022-10-26T05:02:30;7.07;;;5.40;;
12892;SDS011;6514;48.606;9.222;2022-10-26T05:04:57;8.30;;;5.20;;
12892;SDS011;6514;48.606;9.222;2022-10-26T05:07:25;5.97;;;4.47;;
12892;SDS011;6514;48.606;9.222;2022-10-26T05:09:52;9.70;;;6.10;;
12892;SDS011;6514;48.606;9.222;2022-10-26T05:12:19;8.37;;;5.40;;
12892;SDS011;6514;48.606;9.222;2022-10-26T05:14:46;5.93;;;5.20;;
12892;SDS011;6514;48.606;9.222;2022-10-26T05:17:13;7.07;;;5.00;;
12892;SDS011;6514;48.606;9.222;2022-10-26T05:19:40;5.90;;;5.40;;
12892;SDS011;6514;48.606;9.222;2022-10-26T05:22:07;6.60;;;4.93;;
12892;SDS011;6514;48.606;9.222;2022-10-26T05:24:35;5.40;;;4.90;;
12892;SDS011;6514;48.606;9.222;2022-10-26T05:27:02;8.43;;;4.63;;
12892;SDS011;6514;48.606;9.222;2022-10-26T05:29:29;5.10;;;4.33;;
12892;SDS011;6514;48.606;9.222;2022-10-26T05:31:56;6.00;;;4.60;;
12892;SDS011;6514;48.606;9.222;2022-10-26T05:34:23;8.10;;;4.40;;
12892;SDS011;6514;48.606;9.222;2022-10-26T05:36:51;9.50;;;4.70;;
12892;SDS011;6514;48.606;9.222;2022-10-26T05:39:18;7.73;;;4.83;;
12892;SDS011;6514;48.606;9.222;2022-10-26T05:41:47;4.57;;;4.17;;
12892;SDS011;6514;48.606;9.222;2022-10-26T05:44:13;5.90;;;4.60;;
12892;SDS011;6514;48.606;9.222;2022-10-26T05:46:40;5.67;;;4.10;;
12892;SDS011;6514;48.606;9.222;2022-10-26T05:49:07;8.63;;;4.03;;
12892;SDS011;6514;48.606;9.222;2022-10-26T05:51:34;5.00;;;3.90;;
12892;SDS011;6514;48.606;9.222;2022-10-26T05:54:01;3.90;;;3.50;;
12892;SDS011;6514;48.606;9.222;2022-10-26T05:56:35;6.97;;;4.27;;
12892;SDS011;6514;48.606;9.222;2022-10-26T05:59:07;5.53;;;3.83;;
12892;SDS011;6514;48.606;9.222;2022-10-26T06:01:39;7.27;;;3.67;;
12892;SDS011;6514;48.606;9.222;2022-10-26T06:04:20;8.10;;;4.07;;
12892;SDS011;6514;48.606;9.222;2022-10-26T06:06:56;4.80;;;4.27;;
12892;SDS011;6514;48.606;9.222;2022-10-26T06:09:24;5.63;;;4.57;;
12892;SDS011;6514;48.606;9.222;2022-10-26T06:11:51;9.67;;;4.97;;
12892;SDS011;6514;48.606;9.222;2022-10-26T06:14:20;5.20;;;3.83;;
12892;SDS011;6514;48.606;9.222;2022-10-26T06:16:54;6.53;;;3.20;;
12892;SDS011;6514;48.606;9.222;2022-10-26T06:19:35;5.20;;;2.90;;
12892;SDS011;6514;48.606;9.222;2022-10-26T06:22:16;3.83;;;2.63;;
12892;SDS011;6514;48.606;9.222;2022-10-26T06:24:53;6.07;;;2.90;;
12892;SDS011;6514;48.606;9.222;2022-10-26T06:27:27;5.27;;;3.13;;
12892;SDS011;6514;48.606;9.222;2022-10-26T06:30:06;5.03;;;3.00;;
12892;SDS011;6514;48.606;9.222;2022-10-26T06:32:35;5.07;;;2.67;;
12892;SDS011;6514;48.606;9.222;2022-10-26T06:35:10;8.00;;;3.27;;
12892;SDS011;6514;48.606;9.222;2022-10-26T06:37:45;5.83;;;2.87;;
12892;SDS011;6514;48.606;9.222;2022-10-26T06:40:14;4.90;;;3.30;;
12892;SDS011;6514;48.606;9.222;2022-10-26T06:42:42;5.40;;;2.73;;
12892;SDS011;6514;48.606;9.222;2022-10-26T06:45:12;5.37;;;2.50;;
12892;SDS011;6514;48.606;9.222;2022-10-26T06:47:42;7.27;;;2.30;;
12892;SDS011;6514;48.606;9.222;2022-10-26T06:50:27;6.30;;;2.60;;
12892;SDS011;6514;48.606;9.222;2022-10-26T06:53:01;5.07;;;2.40;;
12892;SDS011;6514;48.606;9.222;2022-10-26T06:55:37;7.57;;;2.20;;
12892;SDS011;6514;48.606;9.222;2022-10-26T06:58:07;5.17;;;2.30;;
12892;SDS011;6514;48.606;9.222;2022-10-26T07:00:38;4.20;;;2.30;;
12892;SDS011;6514;48.606;9.222;2022-10-26T07:03:05;4.30;;;2.30;;
12892;SDS011;6514;48.606;9.222;2022-10-26T07:05:32;4.17;;;2.10;;
12892;SDS011;6514;48.606;9.222;2022-10-26T07:07:59;3.40;;;2.10;;
12892;SDS011;6514;48.606;9.222;2022-10-26T07:10:26;4.30;;;2.30;;
12892;SDS011;6514;48.606;9.222;2022-10-26T07:12:53;4.73;;;2.47;;
12892;SDS011;6514;48.606;9.222;2022-10-26T07:15:20;4.70;;;2.57;;
12892;SDS011;6514;48.606;9.222;2022-10-26T07:17:48;5.97;;;2.53;;
12892;SDS011;6514;48.606;9.222;2022-10-26T07:20:16;4.70;;;2.93;;
12892;SDS011;6514;48.606;9.222;2022-10-26T07:22:49;4.53;;;2.80;;
12892;SDS011;6514;48.606;9.222;2022-10-26T07:25:17;3.90;;;2.83;;
12892;SDS011;6514;48.606;9.222;2022-10-26T07:27:44;5.67;;;3.00;;
12892;SDS011;6514;48.606;9.222;2022-10-26T07:30:11;5.10;;;1.83;;
12892;SDS011;6514;48.606;9.222;2022-10-26T07:32:39;4.83;;;1.80;;
12892;SDS011;6514;48.606;9.222;2022-10-26T07:35:07;6.10;;;2.00;;
12892;SDS011;6514;48.606;9.222;2022-10-26T07:37:34;3.90;;;1.90;;
12892;SDS011;6514;48.606;9.222;2022-10-26T07:40:01;6.07;;;2.03;;
12892;SDS011;6514;48.606;9.222;2022-10-26T07:42:29;4.57;;;1.80;;
12892;SDS011;6514;48.606;9.222;2022-10-26T07:44:56;3.60;;;1.90;;
12892;SDS011;6514;48.606;9.222;2022-10-26T07:47:23;2.63;;;1.90;;
12892;SDS011;6514;48.606;9.222;2022-10-26T07:49:50;6.80;;;1.97;;
12892;SDS011;6514;48.606;9.222;2022-10-26T07:52:18;4.17;;;1.90;;
12892;SDS011;6514;48.606;9.222;2022-10-26T07:54:45;2.93;;;1.70;;
12892;SDS011;6514;48.606;9.222;2022-10-26T07:57:12;3.23;;;1.80;;
12892;SDS011;6514;48.606;9.222;2022-10-26T07:59:38;4.10;;;1.93;;
12892;SDS011;6514;48.606;9.222;2022-10-26T08:02:07;4.90;;;2.13;;
12892;SDS011;6514;48.606;9.222;2022-10-26T08:04:34;3.90;;;1.70;;
12892;SDS011;6514;48.606;9.222;2022-10-26T08:07:01;5.07;;;2.30;;
12892;SDS011;6514;48.606;9.222;2022-10-26T08:09:29;5.13;;;1.70;;
12892;SDS011;6514;48.606;9.222;2022-10-26T08:11:56;3.53;;;2.00;;
12892;SDS011;6514;48.606;9.222;2022-10-26T08:14:23;4.73;;;2.00;;
12892;SDS011;6514;48.606;9.222;2022-10-26T08:16:50;4.20;;;1.97;;
12892;SDS011;6514;48.606;9.222;2022-10-26T08:19:17;4.13;;;2.03;;
12892;SDS011;6514;48.606;9.222;2022-10-26T08:21:44;4.93;;;2.30;;
12892;SDS011;6514;48.606;9.222;2022-10-26T08:24:11;4.50;;;2.00;;
12892;SDS011;6514;48.606;9.222;2022-10-26T08:26:39;6.27;;;2.00;;
12892;SDS011;6514;48.606;9.222;2022-10-26T08:29:07;3.43;;;2.13;;
12892;SDS011;6514;48.606;9.222;2022-10-26T08:31:34;4.83;;;2.90;;
12892;SDS011;6514;48.606;9.222;2022-10-26T08:34:01;4.20;;;2.20;;
12892;SDS011;6514;48.606;9.222;2022-10-26T08:36:28;7.20;;;2.60;;
12892;SDS011;6514;48.606;9.222;2022-10-26T08:38:55;5.53;;;2.13;;
12892;SDS011;6514;48.606;9.222;2022-10-26T08:41:23;6.60;;;2.60;;
12892;SDS011;6514;48.606;9.222;2022-10-26T08:44:01;6.00;;;2.80;;
12892;SDS011;6514;48.606;9.222;2022-10-26T08:46:33;4.97;;;2.87;;
12892;SDS011;6514;48.606;9.222;2022-10-26T08:49:03;4.63;;;2.53;;
12892;SDS011;6514;48.606;9.222;2022-10-26T08:51:43;3.77;;;2.73;;
12892;SDS011;6514;48.606;9.222;2022-10-26T08:54:11;3.50;;;2.50;;
12892;SDS011;6514;48.606;9.222;2022-10-26T08:56:42;6.23;;;2.50;;
12892;SDS011;6514;48.606;9.222;2022-10-26T08:59:15;3.17;;;2.40;;
12892;SDS011;6514;48.606;9.222;2022-10-26T09:01:50;5.37;;;2.80;;
12892;SDS011;6514;48.606;9.222;2022-10-26T09:04:17;5.80;;;2.87;;
12892;SDS011;6514;48.606;9.222;2022-10-26T09:06:49;3.83;;;2.50;;
12892;SDS011;6514;48.606;9.222;2022-10-26T09:09:22;4.03;;;2.30;;
12892;SDS011;6514;48.606;9.222;2022-10-26T09:12:01;5.03;;;2.37;;
12892;SDS011;6514;48.606;9.222;2022-10-26T09:14:38;5.00;;;1.97;;
12892;SDS011;6514;48.606;9.222;2022-10-26T09:17:17;4.80;;;2.07;;
12892;SDS011;6514;48.606;9.222;2022-10-26T09:19:59;4.80;;;1.93;;
12892;SDS011;6514;48.606;9.222;2022-10-26T09:22:41;3.70;;;1.80;;
12892;SDS011;6514;48.606;9.222;2022-10-26T09:25:16;4.20;;;1.80;;
12892;SDS011;6514;48.606;9.222;2022-10-26T09:27:46;4.60;;;1.80;;
12892;SDS011;6514;48.606;9.222;2022-10-26T09:30:18;4.93;;;1.77;;
12892;SDS011;6514;48.606;9.222;2022-10-26T09:32:46;5.53;;;2.33;;
12892;SDS011;6514;48.606;9.222;2022-10-26T09:35:16;3.03;;;2.07;;
12892;SDS011;6514;48.606;9.222;2022-10-26T09:37:47;3.73;;;2.30;;
12892;SDS011;6514;48.606;9.222;2022-10-26T09:40:19;3.33;;;2.00;;
12892;SDS011;6514;48.606;9.222;2022-10-26T09:42:53;4.27;;;2.10;;
12892;SDS011;6514;48.606;9.222;2022-10-26T09:45:26;5.43;;;2.20;;
12892;SDS011;6514;48.606;9.222;2022-10-26T09:47:56;4.70;;;2.20;;
12892;SDS011;6514;48.606;9.222;2022-10-26T09:50:30;3.53;;;2.77;;
12892;SDS011;6514;48.606;9.222;2022-10-26T09:52:59;4.97;;;2.00;;
12892;SDS011;6514;48.606;9.222;2022-10-26T09:55:26;7.00;;;2.03;;
12892;SDS011;6514;48.606;9.222;2022-10-26T09:57:55;4.37;;;2.10;;
12892;SDS011;6514;48.606;9.222;2022-10-26T10:00:27;6.33;;;2.20;;
12892;SDS011;6514;48.606;9.222;2022-10-26T10:02:55;5.70;;;2.20;;
12892;SDS011;6514;48.606;9.222;2022-10-26T10:05:27;6.10;;;2.00;;
12892;SDS011;6514;48.606;9.222;2022-10-26T10:10:52;3.83;;;1.77;;
12892;SDS011;6514;48.606;9.222;2022-10-26T10:13:23;7.43;;;2.03;;
12892;SDS011;6514;48.606;9.222;2022-10-26T10:15:53;4.73;;;2.00;;
12892;SDS011;6514;48.606;9.222;2022-10-26T10:18:22;4.13;;;2.00;;
12892;SDS011;6514;48.606;9.222;2022-10-26T10:20:50;5.10;;;2.20;;
12892;SDS011;6514;48.606;9.222;2022-10-26T10:23:24;4.97;;;2.10;;
12892;SDS011;6514;48.606;9.222;2022-10-26T10:26:00;5.03;;;2.07;;
12892;SDS011;6514;48.606;9.222;2022-10-26T10:28:29;5.70;;;1.80;;
12892;SDS011;6514;48.606;9.222;2022-10-26T10:30:59;6.67;;;2.13;;
12892;SDS011;6514;48.606;9.222;2022-10-26T10:33:32;4.93;;;1.70;;
12892;SDS011;6514;48.606;9.222;2022-10-26T10:36:00;7.10;;;2.03;;
12892;SDS011;6514;48.606;9.222;2022-10-26T10:38:35;3.13;;;1.90;;
12892;SDS011;6514;48.606;9.222;2022-10-26T10:41:03;3.43;;;1.63;;
12892;SDS011;6514;48.606;9.222;2022-10-26T10:43:31;6.67;;;2.23;;
12892;SDS011;6514;48.606;9.222;2022-10-26T10:45:59;4.47;;;1.83;;
12892;SDS011;6514;48.606;9.222;2022-10-26T10:48:27;5.87;;;2.70;;
12892;SDS011;6514;48.606;9.222;2022-10-26T10:50:55;6.83;;;2.80;;
12892;SDS011;6514;48.606;9.222;2022-10-26T10:53:32;5.30;;;2.30;;
12892;SDS011;6514;48.606;9.222;2022-10-26T10:56:13;5.03;;;2.10;;
12892;SDS011;6514;48.606;9.222;2022-10-26T10:58:56;9.63;;;2.10;;
12892;SDS011;6514;48.606;9.222;2022-10-26T11:01:37;5.33;;;1.80;;
12892;SDS011;6514;48.606;9.222;2022-10-26T11:07:06;9.30;;;2.30;;
12892;SDS011;6514;48.606;9.222;2022-10-26T11:09:38;8.57;;;2.00;;
12892;SDS011;6514;48.606;9.222;2022-10-26T11:12:09;6.87;;;2.30;;
12892;SDS011;6514;48.606;9.222;2022-10-26T11:14:42;7.10;;;2.20;;
12892;SDS011;6514;48.606;9.222;2022-10-26T11:17:14;5.67;;;2.40;;
12892;SDS011;6514;48.606;9.222;2022-10-26T11:19:47;8.33;;;2.63;;
12892;SDS011;6514;48.606;9.222;2022-10-26T11:22:18;6.73;;;2.27;;
12892;SDS011;6514;48.606;9.222;2022-10-26T11:24:50;6.43;;;2.30;;
12892;SDS011;6514;48.606;9.222;2022-10-26T11:27:24;4.80;;;2.17;;
12892;SDS011;6514;48.606;9.222;2022-10-26T11:30:00;5.00;;;2.00;;
12892;SDS011;6514;48.606;9.222;2022-10-26T11:32:33;4.77;;;2.23;;
12892;SDS011;6514;48.606;9.222;2022-10-26T11:35:10;4.50;;;1.70;;
12892;SDS011;6514;48.606;9.222;2022-10-26T11:37:41;8.40;;;2.47;;
12892;SDS011;6514;48.606;9.222;2022-10-26T11:40:15;4.67;;;2.07;;
12892;SDS011;6514;48.606;9.222;2022-10-26T11:42:51;7.33;;;2.47;;
12892;SDS011;6514;48.606;9.222;2022-10-26T11:45:27;5.63;;;2.10;;
12892;SDS011;6514;48.606;9.222;2022-10-26T11:47:59;5.23;;;2.00;;
12892;SDS011;6514;48.606;9.222;2022-10-26T11:50:32;4.73;;;2.50;;
12892;SDS011;6514;48.606;9.222;2022-10-26T11:53:04;4.87;;;2.30;;
12892;SDS011;6514;48.606;9.222;2022-10-26T11:55:35;4.30;;;2.13;;
12892;SDS011;6514;48.606;9.222;2022-10-26T11:58:04;5.33;;;2.13;;
12892;SDS011;6514;48.606;9.222;2022-10-26T12:00:31;7.13;;;2.30;;
12892;SDS011;6514;48.606;9.222;2022-10-26T12:03:01;5.27;;;2.00;;
12892;SDS011;6514;48.606;9.222;2022-10-26T12:05:35;5.50;;;2.07;;
12892;SDS011;6514;48.606;9.222;2022-10-26T12:08:11;6.60;;;1.90;;
12892;SDS011;6514;48.606;9.222;2022-10-26T12:10:42;5.30;;;2.03;;
12892;SDS011;6514;48.606;9.222;2022-10-26T12:13:18;9.77;;;2.17;;
12892;SDS011;6514;48.606;9.222;2022-10-26T12:15:53;5.20;;;2.17;;
12892;SDS011;6514;48.606;9.222;2022-10-26T12:18:29;5.73;;;2.00;;
12892;SDS011;6514;48.606;9.222;2022-10-26T12:21:03;3.93;;;1.73;;
12892;SDS011;6514;48.606;9.222;2022-10-26T12:23:33;5.10;;;2.10;;
12892;SDS011;6514;48.606;9.222;2022-10-26T12:35:37;4.73;;;1.60;;
12892;SDS011;6514;48.606;9.222;2022-10-26T12:41:17;4.80;;;1.87;;
12892;SDS011;6514;48.606;9.222;2022-10-26T12:43:54;4.10;;;2.00;;
12892;SDS011;6514;48.606;9.222;2022-10-26T12:52:29;5.70;;;1.87;;
12892;SDS011;6514;48.606;9.222;2022-10-26T12:58:17;5.20;;;1.90;;
12892;SDS011;6514;48.606;9.222;2022-10-26T13:01:07;8.70;;;2.30;;
12892;SDS011;6514;48.606;9.222;2022-10-26T13:03:46;9.03;;;2.60;;
12892;SDS011;6514;48.606;9.222;2022-10-26T13:06:31;7.63;;;2.23;;
12892;SDS011;6514;48.606;9.222;2022-10-26T13:09:14;4.07;;;1.80;;
12892;SDS011;6514;48.606;9.222;2022-10-26T13:11:45;5.97;;;1.90;;
12892;SDS011;6514;48.606;9.222;2022-10-26T13:14:18;4.73;;;2.10;;
12892;SDS011;6514;48.606;9.222;2022-10-26T13:16:46;4.97;;;1.77;;
12892;SDS011;6514;48.606;9.222;2022-10-26T13:19:23;6.13;;;1.80;;
12892;SDS011;6514;48.606;9.222;2022-10-26T13:21:52;5.37;;;2.37;;
12892;SDS011;6514;48.606;9.222;2022-10-26T13:24:24;5.97;;;1.53;;
12892;SDS011;6514;48.606;9.222;2022-10-26T13:33:01;6.73;;;2.20;;
12892;SDS011;6514;48.606;9.222;2022-10-26T13:35:32;4.97;;;1.93;;
12892;SDS011;6514;48.606;9.222;2022-10-26T13:37:59;8.50;;;2.07;;
12892;SDS011;6514;48.606;9.222;2022-10-26T13:40:36;5.97;;;2.00;;
12892;SDS011;6514;48.606;9.222;2022-10-26T13:43:04;7.17;;;1.90;;
12892;SDS011;6514;48.606;9.222;2022-10-26T13:45:38;7.43;;;1.90;;
12892;SDS011;6514;48.606;9.222;2022-10-26T13:48:13;4.77;;;2.13;;
12892;SDS011;6514;48.606;9.222;2022-10-26T13:50:45;5.37;;;2.03;;
12892;SDS011;6514;48.606;9.222;2022-10-26T13:53:15;6.70;;;2.30;;
12892;SDS011;6514;48.606;9.222;2022-10-26T13:55:52;6.00;;;2.23;;
12892;SDS011;6514;48.606;9.222;2022-10-26T13:58:27;13.03;;;2.33;;
12892;SDS011;6514;48.606;9.222;2022-10-26T14:00:59;8.23;;;2.07;;
12892;SDS011;6514;48.606;9.222;2022-10-26T14:03:37;7.90;;;2.10;;
12892;SDS011;6514;48.606;9.222;2022-10-26T14:06:04;4.07;;;1.80;;
12892;SDS011;6514;48.606;9.222;2022-10-26T14:08:37;4.33;;;1.80;;
12892;SDS011;6514;48.606;9.222;2022-10-26T14:11:08;7.03;;;2.10;;
12892;SDS011;6514;48.606;9.222;2022-10-26T14:13:38;8.37;;;2.50;;
12892;SDS011;6514;48.606;9.222;2022-10-26T14:16:06;8.90;;;2.93;;
12892;SDS011;6514;48.606;9.222;2022-10-26T14:18:35;7.70;;;1.77;;
12892;SDS011;6514;48.606;9.222;2022-10-26T14:21:04;7.83;;;2.43;;
12892;SDS011;6514;48.606;9.222;2022-10-26T14:23:32;4.23;;;1.93;;
12892;SDS011;6514;48.606;9.222;2022-10-26T14:26:01;7.10;;;1.90;;
12892;SDS011;6514;48.606;9.222;2022-10-26T14:28:30;5.07;;;1.90;;
12892;SDS011;6514;48.606;9.222;2022-10-26T14:31:10;4.97;;;2.00;;
12892;SDS011;6514;48.606;9.222;2022-10-26T14:33:38;4.97;;;2.10;;
12892;SDS011;6514;48.606;9.222;2022-10-26T14:36:05;7.03;;;2.30;;
12892;SDS011;6514;48.606;9.222;2022-10-26T14:38:35;9.70;;;2.67;;
12892;SDS011;6514;48.606;9.222;2022-10-26T14:41:08;5.17;;;1.73;;
12892;SDS011;6514;48.606;9.222;2022-10-26T14:43:36;6.43;;;1.90;;
12892;SDS011;6514;48.606;9.222;2022-10-26T14:46:04;5.80;;;2.00;;
12892;SDS011;6514;48.606;9.222;2022-10-26T14:48:32;10.77;;;2.20;;
12892;SDS011;6514;48.606;9.222;2022-10-26T14:51:01;3.83;;;1.97;;
12892;SDS011;6514;48.606;9.222;2022-10-26T14:53:35;8.60;;;2.30;;
12892;SDS011;6514;48.606;9.222;2022-10-26T14:56:04;4.27;;;1.87;;
12892;SDS011;6514;48.606;9.222;2022-10-26T14:58:44;4.13;;;2.10;;
12892;SDS011;6514;48.606;9.222;2022-10-26T15:01:14;7.97;;;2.60;;
12892;SDS011;6514;48.606;9.222;2022-10-26T15:03:50;8.13;;;1.90;;
12892;SDS011;6514;48.606;9.222;2022-10-26T15:11:57;4.23;;;2.03;;
12892;SDS011;6514;48.606;9.222;2022-10-26T15:14:28;8.10;;;2.20;;
12892;SDS011;6514;48.606;9.222;2022-10-26T15:16:55;8.93;;;2.70;;
12892;SDS011;6514;48.606;9.222;2022-10-26T15:19:23;5.00;;;2.25;;
12892;SDS011;6514;48.606;9.222;2022-10-26T15:21:52;5.07;;;2.30;;
12892;SDS011;6514;48.606;9.222;2022-10-26T15:24:23;6.47;;;2.03;;
12892;SDS011;6514;48.606;9.222;2022-10-26T15:26:56;6.67;;;2.27;;
12892;SDS011;6514;48.606;9.222;2022-10-26T15:32:33;5.70;;;2.10;;
12892;SDS011;6514;48.606;9.222;2022-10-26T15:37:48;9.87;;;2.30;;
12892;SDS011;6514;48.606;9.222;2022-10-26T15:40:16;4.80;;;1.90;;
12892;SDS011;6514;48.606;9.222;2022-10-26T15:42:44;7.03;;;2.13;;
12892;SDS011;6514;48.606;9.222;2022-10-26T15:45:17;4.53;;;1.80;;
12892;SDS011;6514;48.606;9.222;2022-10-26T15:47:46;4.67;;;1.70;;
12892;SDS011;6514;48.606;9.222;2022-10-26T15:50:16;5.97;;;2.10;;
12892;SDS011;6514;48.606;9.222;2022-10-26T15:52:45;5.60;;;2.20;;
12892;SDS011;6514;48.606;9.222;2022-10-26T15:55:11;4.53;;;2.13;;
12892;SDS011;6514;48.606;9.222;2022-10-26T15:57:38;7.43;;;2.20;;
12892;SDS011;6514;48.606;9.222;2022-10-26T16:00:06;5.17;;;3.80;;
12892;SDS011;6514;48.606;9.222;2022-10-26T16:02:40;8.03;;;4.17;;
12892;SDS011;6514;48.606;9.222;2022-10-26T16:05:08;5.57;;;2.17;;
12892;SDS011;6514;48.606;9.222;2022-10-26T16:07:36;5.50;;;2.30;;
12892;SDS011;6514;48.606;9.222;2022-10-26T16:10:08;4.43;;;2.30;;
12892;SDS011;6514;48.606;9.222;2022-10-26T16:12:38;5.23;;;2.40;;